createdAt,value
2023-03-06T00:01:20.145Z,32.43
2023-03-06T00:03:48.574Z,32.08
2023-03-06T00:06:17.019Z,32.20
2023-03-06T00:08:45.544Z,32.18
2023-03-06T00:11:15.572Z,32.40
2023-03-06T00:13:44.041Z,32.31
2023-03-06T00:16:12.666Z,32.18
2023-03-06T00:18:44.083Z,32.34
2023-03-06T00:21:12.516Z,32.06
2023-03-06T00:23:41.367Z,31.79
2023-03-06T00:26:11.022Z,32.01
2023-03-06T00:28:39.488Z,32.13
2023-03-06T00:31:07.932Z,32.04
2023-03-06T00:33:36.343Z,32.04
2023-03-06T00:36:08.088Z,32.09
2023-03-06T00:38:37.325Z,31.59
2023-03-06T00:41:10.730Z,31.96
2023-03-06T00:43:39.174Z,31.73
2023-03-06T00:46:08.168Z,31.69
2023-03-06T00:48:36.886Z,31.79
2023-03-06T00:51:07.288Z,31.36
2023-03-06T00:53:35.764Z,31.41
2023-03-06T00:56:04.214Z,31.54
2023-03-06T00:58:32.649Z,31.49
2023-03-06T01:01:01.089Z,31.58
2023-03-06T01:03:29.478Z,31.15
2023-03-06T01:05:58.040Z,31.67
2023-03-06T01:08:28.068Z,31.57
2023-03-06T01:10:56.595Z,31.64
2023-03-06T01:13:25.617Z,30.78
2023-03-06T01:15:54.056Z,30.99
2023-03-06T01:18:22.514Z,31.47
2023-03-06T01:20:50.882Z,30.90
2023-03-06T01:23:19.346Z,30.99
2023-03-06T01:25:49.104Z,31.08
2023-03-06T01:28:17.507Z,30.96
2023-03-06T01:30:45.877Z,31.13
2023-03-06T01:33:14.318Z,30.88
2023-03-06T01:35:43.022Z,31.08
2023-03-06T01:38:11.497Z,31.04
2023-03-06T01:40:40.957Z,31.25
2023-03-06T01:43:29.109Z,30.92
2023-03-06T01:46:38.834Z,31.05
2023-03-06T01:49:17.888Z,30.95
2023-03-06T01:51:53.171Z,30.72
2023-03-06T01:54:26.258Z,31.06
2023-03-06T01:57:01.549Z,30.54
2023-03-06T01:59:34.523Z,30.85
2023-03-06T02:02:04.736Z,30.70
2023-03-06T02:04:34.374Z,31.06
2023-03-06T02:07:05.271Z,30.56
2023-03-06T02:09:34.845Z,30.81
2023-03-06T02:12:07.752Z,30.62
2023-03-06T02:14:38.343Z,30.62
2023-03-06T02:17:08.422Z,30.37
2023-03-06T02:19:48.061Z,30.57
2023-03-06T02:22:16.548Z,30.45
2023-03-06T02:24:52.964Z,30.74
2023-03-06T02:27:23.989Z,30.77
2023-03-06T02:29:52.425Z,30.37
2023-03-06T02:32:20.993Z,30.68
2023-03-06T02:34:59.246Z,30.37
2023-03-06T02:37:29.913Z,30.73
2023-03-06T02:40:13.424Z,30.34
2023-03-06T02:42:49.550Z,30.50
2023-03-06T02:45:26.075Z,30.27
2023-03-06T02:47:54.520Z,30.60
2023-03-06T02:50:23.145Z,30.25
2023-03-06T02:52:51.719Z,30.32
2023-03-06T02:55:20.328Z,30.34
2023-03-06T02:57:50.300Z,30.12
2023-03-06T03:00:21.574Z,30.22
2023-03-06T03:02:49.978Z,30.28
2023-03-06T03:05:18.728Z,30.67
2023-03-06T03:07:47.415Z,30.34
2023-03-06T03:10:16.251Z,30.26
2023-03-06T03:12:44.904Z,30.27
2023-03-06T03:15:14.894Z,30.39
2023-03-06T03:17:43.730Z,30.39
2023-03-06T03:20:15.673Z,30.37
2023-03-06T03:22:44.162Z,30.57
2023-03-06T03:25:12.799Z,30.40
2023-03-06T03:27:41.266Z,30.42
2023-03-06T03:30:11.739Z,30.44
2023-03-06T03:32:41.847Z,29.96
2023-03-06T03:35:11.756Z,30.04
2023-03-06T03:37:40.329Z,30.17
2023-03-06T03:40:10.915Z,30.23
2023-03-06T03:42:39.418Z,30.12
2023-03-06T03:45:09.454Z,30.49
2023-03-06T03:47:37.834Z,30.56
2023-03-06T03:50:10.543Z,30.46
2023-03-06T03:52:39.389Z,30.26
2023-03-06T03:55:09.713Z,30.00
2023-03-06T03:57:39.308Z,30.19
2023-03-06T04:00:11.919Z,30.57
2023-03-06T04:02:40.324Z,30.29
2023-03-06T04:05:11.484Z,30.40
2023-03-06T04:07:40.382Z,30.41
2023-03-06T04:10:13.076Z,30.49
2023-03-06T04:12:41.582Z,30.21
2023-03-06T04:15:11.222Z,30.39
2023-03-06T04:17:39.652Z,30.09
2023-03-06T04:20:11.868Z,30.36
2023-03-06T04:22:40.253Z,29.96
2023-03-06T04:25:09.863Z,30.23
2023-03-06T04:27:38.360Z,29.99
2023-03-06T04:30:09.186Z,30.17
2023-03-06T04:32:37.990Z,30.14
2023-03-06T04:35:07.580Z,30.12
2023-03-06T04:37:37.457Z,30.07
2023-03-06T04:40:07.270Z,30.22
2023-03-06T04:42:35.813Z,30.40
2023-03-06T04:45:04.238Z,30.15
2023-03-06T04:47:32.635Z,30.00
2023-03-06T04:50:01.045Z,30.54
2023-03-06T04:52:29.414Z,30.18
2023-03-06T04:54:59.571Z,30.14
2023-03-06T04:57:28.117Z,30.47
2023-03-06T04:59:56.731Z,30.14
2023-03-06T05:02:25.385Z,30.21
2023-03-06T05:04:53.828Z,30.29
2023-03-06T05:07:22.342Z,30.44
2023-03-06T05:09:50.746Z,30.23
2023-03-06T05:12:20.580Z,30.33
2023-03-06T05:14:49.119Z,30.61
2023-03-06T05:17:17.495Z,30.17
2023-03-06T05:19:45.891Z,30.09
2023-03-06T05:22:14.324Z,30.43
2023-03-06T05:24:42.877Z,30.53
2023-03-06T05:27:11.285Z,30.65
2023-03-06T05:29:41.075Z,30.47
2023-03-06T05:32:10.151Z,30.25
2023-03-06T05:34:40.564Z,30.48
2023-03-06T05:37:09.173Z,30.46
2023-03-06T05:39:37.718Z,30.54
2023-03-06T05:42:06.438Z,30.49
2023-03-06T05:44:36.346Z,30.81
2023-03-06T05:47:06.803Z,30.65
2023-03-06T05:49:36.453Z,30.36
2023-03-06T05:52:06.893Z,30.42
2023-03-06T05:54:37.141Z,30.84
2023-03-06T05:57:06.819Z,30.42
2023-03-06T05:59:36.013Z,30.60
2023-03-06T06:02:05.967Z,30.69
2023-03-06T06:04:34.519Z,30.71
2023-03-06T06:07:03.148Z,30.43
2023-03-06T06:09:31.639Z,30.48
2023-03-06T06:12:03.790Z,30.66
2023-03-06T06:14:35.494Z,30.83
2023-03-06T06:17:05.714Z,30.85
2023-03-06T06:19:34.357Z,30.86
2023-03-06T06:22:03.903Z,30.95
2023-03-06T06:24:33.313Z,30.43
2023-03-06T06:27:03.991Z,30.69
2023-03-06T06:29:33.422Z,30.48
2023-03-06T06:32:02.745Z,30.81
2023-03-06T06:34:32.932Z,30.85
2023-03-06T06:37:01.398Z,30.78
2023-03-06T06:39:30.509Z,30.70
2023-03-06T06:42:20.250Z,30.78
2023-03-06T06:44:47.427Z,30.52
2023-03-06T06:47:22.916Z,30.55
2023-03-06T06:49:55.535Z,30.71
2023-03-06T06:52:25.164Z,30.40
2023-03-06T06:54:54.264Z,30.64
2023-03-06T06:57:22.932Z,30.79
2023-03-06T06:59:53.782Z,30.72
2023-03-06T07:02:22.648Z,30.43
2023-03-06T07:05:03.201Z,30.48
2023-03-06T07:07:36.644Z,30.71
2023-03-06T07:10:06.832Z,30.76
2023-03-06T07:12:35.547Z,30.71
2023-03-06T07:15:06.659Z,30.54
2023-03-06T07:17:35.103Z,30.69
2023-03-06T07:20:03.925Z,30.36
2023-03-06T07:22:44.835Z,30.67
2023-03-06T07:25:18.961Z,30.60
2023-03-06T07:27:53.241Z,30.57
2023-03-06T07:30:23.463Z,30.41
2023-03-06T07:32:55.138Z,30.17
2023-03-06T07:35:25.086Z,30.28
2023-03-06T07:37:55.419Z,30.30
2023-03-06T07:40:24.839Z,30.04
2023-03-06T07:43:06.024Z,30.32
2023-03-06T07:45:41.664Z,30.13
2023-03-06T07:48:11.009Z,30.45
2023-03-06T07:50:39.560Z,30.31
2023-03-06T07:53:10.835Z,30.46
2023-03-06T07:55:42.470Z,30.23
2023-03-06T07:58:10.933Z,30.19
2023-03-06T08:00:39.384Z,30.24
2023-03-06T08:03:07.905Z,30.22
2023-03-06T08:05:36.365Z,30.35
2023-03-06T08:08:05.048Z,30.28
2023-03-06T08:10:34.906Z,30.21
2023-03-06T08:13:03.392Z,30.33
2023-03-06T08:15:31.877Z,30.32
2023-03-06T08:18:00.370Z,30.36
2023-03-06T08:20:28.923Z,30.43
2023-03-06T08:22:57.402Z,30.17
2023-03-06T08:25:25.849Z,30.11
2023-03-06T08:27:55.684Z,30.11
2023-03-06T08:30:24.533Z,29.93
2023-03-06T08:32:52.981Z,30.11
2023-03-06T08:35:21.679Z,30.27
2023-03-06T08:37:50.138Z,30.34
2023-03-06T08:40:18.889Z,30.25
2023-03-06T08:42:49.443Z,30.17
2023-03-06T08:45:19.537Z,30.27
2023-03-06T08:47:48.145Z,30.14
2023-03-06T08:50:16.827Z,30.02
2023-03-06T08:52:45.300Z,30.09
2023-03-06T08:55:15.139Z,30.10
2023-03-06T08:57:43.732Z,29.82
2023-03-06T09:00:14.286Z,29.88
2023-03-06T09:02:44.244Z,29.62
2023-03-06T09:05:13.422Z,29.37
2023-03-06T09:07:41.908Z,29.45
2023-03-06T09:10:15.873Z,29.44
2023-03-06T09:12:50.166Z,29.38
2023-03-06T09:15:21.899Z,29.52
2023-03-06T09:17:52.004Z,29.41
2023-03-06T09:20:21.841Z,29.40
2023-03-06T09:22:50.385Z,29.35
2023-03-06T09:25:21.841Z,29.26
2023-03-06T09:28:08.712Z,29.02
2023-03-06T09:30:40.697Z,28.93
2023-03-06T09:33:10.715Z,28.96
2023-03-06T09:35:49.033Z,29.02
2023-03-06T09:38:17.668Z,28.93
2023-03-06T09:41:02.701Z,28.98
2023-03-06T09:43:35.529Z,28.88
2023-03-06T09:46:17.755Z,28.96
2023-03-06T09:49:02.702Z,28.96
2023-03-06T09:51:44.077Z,28.89
2023-03-06T09:54:16.055Z,28.83
2023-03-06T09:56:50.850Z,28.74
2023-03-06T09:59:23.044Z,28.68
2023-03-06T10:02:01.928Z,28.52
2023-03-06T10:04:40.375Z,28.65
2023-03-06T10:07:16.764Z,28.78
2023-03-06T10:09:53.273Z,28.65
2023-03-06T10:12:26.243Z,28.97
2023-03-06T10:15:17.075Z,28.57
2023-03-06T10:17:46.094Z,28.52
2023-03-06T10:20:22.323Z,28.61
2023-03-06T10:23:24.993Z,28.73
2023-03-06T10:26:02.382Z,28.67
2023-03-06T10:28:37.955Z,28.63
2023-03-06T10:31:16.569Z,28.67
2023-03-06T10:33:56.054Z,28.74
2023-03-06T10:36:28.393Z,28.53
2023-03-06T10:38:58.927Z,28.58
2023-03-06T10:41:30.616Z,28.60
2023-03-06T10:44:22.939Z,28.72
2023-03-06T10:46:54.643Z,28.84
2023-03-06T10:49:33.954Z,28.82
2023-03-06T10:52:08.446Z,28.75
2023-03-06T10:54:39.287Z,28.77
2023-03-06T10:57:27.262Z,28.76
2023-03-06T10:59:57.882Z,28.72
2023-03-06T11:02:30.815Z,28.52
2023-03-06T11:05:01.477Z,28.38
2023-03-06T11:07:32.953Z,28.05
2023-03-06T11:10:07.683Z,27.98
2023-03-06T11:12:38.966Z,27.69
2023-03-06T11:15:22.189Z,27.54
2023-03-06T11:17:59.230Z,27.20
2023-03-06T11:20:48.412Z,27.45
2023-03-06T11:23:25.680Z,27.18
2023-03-06T11:25:58.494Z,26.98
2023-03-06T11:28:33.827Z,27.05
2023-03-06T11:31:09.516Z,26.84
2023-03-06T11:33:46.489Z,26.79
2023-03-06T11:36:22.391Z,27.03
2023-03-06T11:38:54.720Z,27.01
2023-03-06T11:41:35.102Z,26.85
2023-03-06T11:44:15.407Z,26.82
2023-03-06T11:46:51.713Z,26.84
2023-03-06T11:49:27.319Z,26.83
2023-03-06T11:52:01.745Z,26.70
2023-03-06T11:54:32.215Z,26.62
2023-03-06T11:57:07.020Z,26.66
2023-03-06T12:00:03.723Z,26.87
2023-03-06T12:02:45.292Z,26.89
2023-03-06T12:05:35.904Z,26.68
2023-03-06T12:08:24.201Z,26.68
2023-03-06T12:11:02.817Z,26.66
2023-03-06T12:13:56.689Z,26.93
2023-03-06T12:16:51.194Z,26.98
2023-03-06T12:19:39.158Z,26.86
2023-03-06T12:22:32.567Z,26.78
2023-03-06T12:25:31.061Z,26.72
2023-03-06T12:28:35.207Z,26.92
2023-03-06T12:31:31.781Z,26.89
2023-03-06T12:34:29.950Z,27.00
2023-03-06T12:37:15.350Z,27.01
2023-03-06T12:40:22.482Z,26.75
2023-03-06T12:43:49.247Z,26.79
2023-03-06T12:46:21.813Z,27.01
2023-03-06T12:49:05.403Z,27.10
2023-03-06T12:51:35.426Z,26.99
2023-03-06T12:54:05.348Z,27.04
2023-03-06T12:56:35.696Z,27.02
2023-03-06T12:59:05.997Z,26.96
2023-03-06T13:02:06.529Z,26.99
2023-03-06T13:05:01.492Z,27.06
2023-03-06T13:07:53.833Z,27.05
2023-03-06T13:10:27.547Z,27.01
2023-03-06T13:12:58.434Z,27.17
2023-03-06T13:15:45.621Z,27.17
2023-03-06T13:18:59.869Z,27.18
2023-03-06T13:22:15.617Z,26.95
2023-03-06T13:24:45.567Z,26.98
2023-03-06T13:27:34.388Z,26.40
2023-03-06T13:30:28.475Z,26.41
2023-03-06T13:32:57.756Z,26.17
2023-03-06T13:35:55.767Z,25.28
2023-03-06T13:38:53.597Z,24.52
2023-03-06T13:41:58.475Z,24.82
2023-03-06T13:44:51.601Z,24.85
2023-03-06T13:48:37.164Z,24.71
2023-03-06T13:50:44.685Z,23.64
2023-03-06T13:53:58.518Z,23.90
2023-03-06T13:57:08.451Z,24.08
2023-03-06T14:00:24.589Z,24.22
2023-03-06T14:03:26.296Z,23.60
2023-03-06T14:05:54.939Z,23.98
2023-03-06T14:08:26.256Z,23.90
2023-03-06T14:11:03.878Z,24.03
2023-03-06T14:13:47.254Z,24.24
2023-03-06T14:16:22.144Z,24.08
2023-03-06T14:18:54.819Z,24.18
2023-03-06T14:21:31.573Z,24.33
2023-03-06T14:24:05.074Z,24.32
2023-03-06T14:26:40.903Z,24.51
2023-03-06T14:29:21.915Z,24.49
2023-03-06T14:31:52.755Z,24.55
2023-03-06T14:34:25.547Z,24.56
2023-03-06T14:36:56.542Z,24.56
2023-03-06T14:39:32.184Z,24.49
2023-03-06T14:42:09.655Z,24.39
2023-03-06T14:44:38.216Z,24.41
2023-03-06T14:47:27.192Z,24.59
2023-03-06T14:50:26.623Z,24.46
2023-03-06T14:52:59.440Z,23.35
2023-03-06T14:55:31.185Z,24.06
2023-03-06T14:58:04.911Z,24.12
2023-03-06T15:00:39.416Z,24.25
2023-03-06T15:03:16.222Z,24.44
2023-03-06T15:05:48.298Z,24.40
2023-03-06T15:08:22.808Z,24.47
2023-03-06T15:11:00.214Z,24.25
2023-03-06T15:13:31.536Z,24.62
2023-03-06T15:16:04.503Z,24.53
2023-03-06T15:18:35.665Z,24.67
2023-03-06T15:21:18.776Z,24.44
2023-03-06T15:23:49.141Z,24.53
2023-03-06T15:26:29.352Z,24.54
2023-03-06T15:29:14.926Z,24.62
2023-03-06T15:31:45.514Z,24.61
2023-03-06T15:34:26.242Z,24.53
2023-03-06T15:36:58.794Z,24.54
2023-03-06T15:39:38.724Z,24.45
2023-03-06T15:42:20.627Z,24.57
2023-03-06T15:44:53.092Z,24.72
2023-03-06T15:47:22.640Z,24.67
2023-03-06T15:49:53.231Z,24.69
2023-03-06T15:52:25.216Z,24.60
2023-03-06T15:54:54.340Z,24.83
2023-03-06T15:57:29.181Z,24.96
2023-03-06T15:59:58.886Z,24.74
2023-03-06T16:02:27.819Z,24.97
2023-03-06T16:04:56.942Z,25.13
2023-03-06T16:07:30.765Z,24.99
2023-03-06T16:09:59.447Z,24.95
2023-03-06T16:12:28.901Z,25.07
2023-03-06T16:14:59.394Z,25.16
2023-03-06T16:17:28.207Z,25.35
2023-03-06T16:19:57.228Z,25.27
2023-03-06T16:22:27.863Z,25.31
2023-03-06T16:24:56.807Z,25.48
2023-03-06T16:27:25.783Z,25.61
2023-03-06T16:29:54.301Z,25.62
2023-03-06T16:32:27.666Z,25.69
2023-03-06T16:34:58.246Z,25.79
2023-03-06T16:37:29.431Z,25.94
2023-03-06T16:39:58.256Z,26.16
2023-03-06T16:42:27.582Z,26.15
2023-03-06T16:44:56.523Z,26.16
2023-03-06T16:47:25.855Z,26.23
2023-03-06T16:49:57.970Z,26.24
2023-03-06T16:52:30.338Z,26.36
2023-03-06T16:55:02.253Z,26.48
2023-03-06T16:57:35.714Z,26.52
2023-03-06T17:00:06.676Z,26.63
2023-03-06T17:02:35.271Z,26.66
2023-03-06T17:05:04.377Z,26.63
2023-03-06T17:07:36.219Z,26.82
2023-03-06T17:10:05.828Z,26.76
2023-03-06T17:12:35.668Z,26.77
2023-03-06T17:15:05.978Z,26.93
2023-03-06T17:17:35.721Z,27.00
2023-03-06T17:20:09.080Z,26.89
2023-03-06T17:22:40.598Z,27.05
2023-03-06T17:25:13.880Z,27.04
2023-03-06T17:27:43.104Z,26.98
2023-03-06T17:30:13.808Z,27.10
2023-03-06T17:32:43.228Z,27.23
2023-03-06T17:35:12.503Z,27.29
2023-03-06T17:37:45.377Z,27.15
2023-03-06T17:40:17.068Z,27.25
2023-03-06T17:42:48.841Z,27.28
2023-03-06T17:45:18.132Z,27.29
2023-03-06T17:47:49.112Z,27.27
2023-03-06T17:50:19.613Z,27.30
2023-03-06T17:52:51.319Z,27.41
2023-03-06T17:55:21.146Z,27.53
2023-03-06T17:57:52.873Z,27.52
2023-03-06T18:00:24.490Z,27.62
2023-03-06T18:02:53.856Z,27.60
2023-03-06T18:05:23.922Z,27.59
2023-03-06T18:07:55.367Z,27.70
2023-03-06T18:10:25.120Z,27.65
2023-03-06T18:12:56.175Z,27.78
2023-03-06T18:15:26.132Z,27.87
2023-03-06T18:17:57.541Z,27.76
2023-03-06T18:20:29.500Z,28.14
2023-03-06T18:23:04.094Z,28.03
2023-03-06T18:25:34.845Z,27.96
2023-03-06T18:28:04.204Z,28.17
2023-03-06T18:30:37.372Z,28.20
2023-03-06T18:33:09.362Z,28.15
2023-03-06T18:35:39.831Z,28.25
2023-03-06T18:38:15.464Z,28.25
2023-03-06T18:40:49.046Z,28.22
2023-03-06T18:43:19.385Z,28.25
2023-03-06T18:45:57.415Z,28.19
2023-03-06T18:48:27.464Z,28.32
2023-03-06T18:50:58.164Z,28.56
2023-03-06T18:53:30.712Z,28.37
2023-03-06T18:56:00.958Z,28.46
2023-03-06T18:58:33.018Z,28.42
2023-03-06T19:01:08.175Z,28.50
2023-03-06T19:03:38.909Z,28.76
2023-03-06T19:06:12.966Z,28.64
2023-03-06T19:08:45.777Z,28.87
2023-03-06T19:11:19.200Z,28.63
2023-03-06T19:13:51.578Z,28.84
2023-03-06T19:16:25.795Z,28.60
2023-03-06T19:18:57.178Z,29.09
2023-03-06T19:21:30.609Z,29.20
2023-03-06T19:24:04.642Z,29.49
2023-03-06T19:26:36.247Z,30.15
2023-03-06T19:29:06.361Z,29.60
2023-03-06T19:31:38.073Z,30.00
2023-03-06T19:34:08.196Z,29.94
2023-03-06T19:36:41.326Z,30.12
2023-03-06T19:39:16.381Z,30.41
2023-03-06T19:41:47.933Z,30.65
2023-03-06T19:44:18.264Z,30.45
2023-03-06T19:46:50.478Z,30.40
2023-03-06T19:49:23.763Z,30.59
2023-03-06T19:51:54.374Z,30.57
2023-03-06T19:54:27.521Z,30.73
2023-03-06T19:56:57.781Z,30.32
2023-03-06T19:59:31.503Z,30.33
2023-03-06T20:02:02.662Z,30.53
2023-03-06T20:04:36.001Z,30.45
2023-03-06T20:07:12.915Z,30.71
2023-03-06T20:09:45.132Z,30.85
2023-03-06T20:12:15.780Z,30.79
2023-03-06T20:14:47.305Z,30.70
2023-03-06T20:17:18.986Z,30.77
2023-03-06T20:19:50.403Z,30.75
2023-03-06T20:22:21.068Z,30.71
2023-03-06T20:24:53.351Z,31.12
2023-03-06T20:27:24.627Z,30.76
2023-03-06T20:29:54.870Z,30.88
2023-03-06T20:32:26.099Z,30.83
2023-03-06T20:34:56.657Z,31.18
2023-03-06T20:37:27.709Z,31.17
2023-03-06T20:39:59.196Z,31.08
2023-03-06T20:42:28.800Z,31.07
2023-03-06T20:44:59.097Z,30.83
2023-03-06T20:47:31.353Z,30.80
2023-03-06T20:50:01.567Z,30.94
2023-03-06T20:52:34.986Z,30.69
2023-03-06T20:55:08.770Z,31.19
2023-03-06T20:57:39.049Z,31.18
2023-03-06T21:00:12.297Z,30.63
2023-03-06T21:02:42.679Z,30.77
2023-03-06T21:05:13.217Z,30.79
2023-03-06T21:07:45.956Z,30.68
2023-03-06T21:10:16.373Z,31.11
2023-03-06T21:12:45.546Z,30.96
2023-03-06T21:15:14.275Z,30.66
2023-03-06T21:17:43.818Z,30.81
2023-03-06T21:20:13.491Z,31.20
2023-03-06T21:22:42.637Z,31.01
2023-03-06T21:25:12.838Z,30.75
2023-03-06T21:27:43.533Z,30.87
2023-03-06T21:30:14.584Z,30.71
2023-03-06T21:32:43.712Z,31.03
2023-03-06T21:35:13.323Z,30.75
2023-03-06T21:37:42.270Z,30.70
2023-03-06T21:40:14.154Z,30.68
2023-03-06T21:42:44.147Z,31.44
2023-03-06T21:45:13.233Z,31.22
2023-03-06T21:47:41.760Z,30.96
2023-03-06T21:50:13.163Z,30.98
2023-03-06T21:52:41.662Z,31.14
2023-03-06T21:55:11.603Z,30.95
2023-03-06T21:57:40.095Z,31.45
2023-03-06T22:00:12.936Z,31.61
2023-03-06T22:02:41.680Z,31.16
2023-03-06T22:05:10.949Z,31.10
2023-03-06T22:07:40.374Z,31.15
2023-03-06T22:10:14.334Z,31.34
2023-03-06T22:12:45.833Z,31.00
2023-03-06T22:15:15.903Z,31.12
2023-03-06T22:17:44.458Z,31.43
2023-03-06T22:20:14.128Z,31.07
2023-03-06T22:22:43.707Z,31.07
2023-03-06T22:25:12.652Z,31.24
2023-03-06T22:27:41.129Z,31.22
2023-03-06T22:30:11.792Z,31.51
2023-03-06T22:32:41.648Z,31.52
2023-03-06T22:35:11.014Z,31.65
2023-03-06T22:37:39.439Z,31.38
2023-03-06T22:40:09.566Z,31.84
2023-03-06T22:42:38.052Z,31.55
2023-03-06T22:45:08.426Z,31.35
2023-03-06T22:47:37.861Z,31.51
2023-03-06T22:50:09.187Z,31.34
2023-03-06T22:52:37.620Z,31.34
2023-03-06T22:55:08.082Z,31.42
2023-03-06T22:57:36.547Z,31.78
2023-03-06T23:00:07.300Z,31.64
2023-03-06T23:02:36.118Z,31.37
2023-03-06T23:05:04.875Z,31.75
2023-03-06T23:07:34.723Z,31.83
2023-03-06T23:10:03.172Z,31.85
2023-03-06T23:12:31.630Z,31.90
2023-03-06T23:15:00.208Z,31.99
2023-03-06T23:17:28.774Z,31.52
2023-03-06T23:19:57.230Z,31.94
2023-03-06T23:22:25.779Z,31.91
2023-03-06T23:24:55.767Z,32.21
2023-03-06T23:27:24.210Z,32.58
2023-03-06T23:29:55.383Z,32.38
2023-03-06T23:32:23.918Z,32.48
2023-03-06T23:34:52.636Z,32.50
2023-03-06T23:37:21.175Z,32.48
2023-03-06T23:39:49.840Z,32.92
2023-03-06T23:42:20.064Z,32.93
2023-03-06T23:44:48.535Z,32.63
2023-03-06T23:47:20.061Z,32.65
2023-03-06T23:49:48.548Z,32.50
2023-03-06T23:52:17.012Z,32.90
2023-03-06T23:54:45.468Z,32.54
2023-03-06T23:57:13.941Z,32.53
2023-03-06T23:59:44.407Z,32.83
